Elmendorf Air Force Base, AK (99506)

10:02 AM AKDT on September 18, 2014 (GMT -0800)
KL7AIR | Change Station
CLOSE
Current Station
Personal Weather Station
Location: Elmendorf AFB, AK
Elevation: 130 ft
Nearby Weather Stations

Elev 130 ft 61.27 °N, 149.79 °W | Updated 3 seconds ago

Overcast
Overcast
46.2 °F
Feels Like 42 °F
N
9.3
Wind Variable Wind from SE
Gusts 15.9 mph

Today
High -- | Low -- °F
--% Chance of Precip.
Yesterday
High -- | Low -- °F
Precip. -- in
7:33 AM 8:11 PM
Waning Crescent, 25% visible
Pressure 29.06 in
Visibility 10.0 miles
Clouds Overcast 700 ft
Windchill 42 °F
Dew Point 45 °F
Humidity 97%
Rainfall 0.01 in
Snow Depth 0 in , 0 in , 67 in
UV 0 out of 12
Pollen Not available.
Air Quality Not available.
Flu Activity Not available.
SPECI PAED 181534Z 03001KT 10SM OVC007 09/09 A2906 RMK AO2A

More Conditions Fewer Conditions

Pressure 29.06 in
Visibility 10.0 miles
Clouds Overcast 700 ft
Windchill 42 °F
Dew Point 45 °F
Humidity 97%
Rainfall 0.01 in
Snow Depth 0 in , 0 in , 67 in
UV 0 out of 12
Pollen Not available.
Air Quality Not available.
Flu Activity Not available.
SPECI PAED 181534Z 03001KT 10SM OVC007 09/09 A2906 RMK AO2A

More Conditions Fewer Conditions

10-Day Weather Forecast

Almanac

Astronomy

Sep. 18, 2014 Rise Set
Actual Time 7:33 AM AKDT 8:11 PM AKDT
Civil Twilight 6:49 AM AKDT 8:54 PM AKDT
Nautical Twilight 5:56 AM AKDT 9:48 PM AKDT
Astronomical Twilight 4:55 AM AKDT 10:47 PM AKDT
Moon 1:27 AM AKDT 6:07 PM AKDT
Length of Visible Light 14h 04m
Length of Day
12h 37m
Tomorrow will be 5m 42s shorter.
Waning Crescent, 25% of the Moon is Illuminated
Today
Waning Crescent
Sep 24
New
Oct 1
First Quarter
Oct 8
Full
Oct 15
Last Quarter

Today's Extremes

State Highs State Lows

Community

WunderPhotos

Upload Photos

1,754,410 photos uploaded!

Nearby

Snow Depth

Station Depth Elevation
Little Chena Ridge 0 in 2000 ft
Fort Yukon 0 in 430 ft
Nuka Glacier 67 in 1250 ft
Indian Pass 1 in 2300 ft
Summit Creek 0 in 1400 ft

Earthquake Activity

City Distance Mag. Time & Date
No recent earthquake activity has been reported nearby.
Minimum magnitude displayed is 2.5.

Coastal Water Temperatures

Place Temperature
No Stations Reporting

Nearby Weather Stations